FDX1543 SACO-SABE
Flight info
| Callsign | FDX1543 |
|---|---|
| Flight time | 1h 0m |
| Altitude | 35000 |
| Route | UTRAX UW24 SNT SNT9R |
| Aircraft | B738/M-SDE2E3FGHIRWXY/LB1 |
Departure
| Time | 2026-05-03 23:50 |
|---|---|
| Airport | Ingeniero Aeronáutico Ambrosio L.V. Taravella International Airport (SACO) |
Arrival
| Time | 2026-05-04 00:51 |
|---|---|
| Airport | Aeroparque Jorge Newbery (SABE) |
| Time | Latitude | Longitude | Altitude | Speed | Heading |
|---|---|---|---|---|---|
| 2026-05-03 22:59 | -31.31436 | -64.21183 | 1612 ft | 0 kts | 270° |
| 2026-05-03 23:17 | -31.31436 | -64.21180 | 1612 ft | 3 kts | 270° |
| 2026-05-03 23:17 | -31.31436 | -64.21156 | 1612 ft | 3 kts | 269° |
| 2026-05-03 23:18 | -31.31435 | -64.21133 | 1612 ft | 3 kts | 273° |
| 2026-05-03 23:18 | -31.31432 | -64.21109 | 1612 ft | 3 kts | 231° |
| 2026-05-03 23:18 | -31.31416 | -64.21097 | 1614 ft | 2 kts | 186° |
| 2026-05-03 23:18 | -31.31415 | -64.21096 | 1615 ft | 0 kts | 186° |
| 2026-05-03 23:28 | -31.31401 | -64.21100 | 1622 ft | 3 kts | 124° |
| 2026-05-03 23:28 | -31.31392 | -64.21122 | 1620 ft | 3 kts | 102° |
| 2026-05-03 23:29 | -31.31391 | -64.21146 | 1618 ft | 3 kts | 90° |
| 2026-05-03 23:29 | -31.31391 | -64.21152 | 1618 ft | 0 kts | 90° |
| 2026-05-03 23:39 | -31.31391 | -64.21150 | 1618 ft | 1 kts | 90° |
| 2026-05-03 23:39 | -31.31394 | -64.21121 | 1619 ft | 6 kts | 113° |
| 2026-05-03 23:40 | -31.31427 | -64.21102 | 1613 ft | 4 kts | 178° |
| 2026-05-03 23:40 | -31.31429 | -64.21102 | 1613 ft | 0 kts | 178° |
| 2026-05-03 23:40 | -31.31440 | -64.21101 | 1615 ft | 2 kts | 173° |
| 2026-05-03 23:40 | -31.31461 | -64.21092 | 1612 ft | 0 kts | 153° |
| 2026-05-03 23:41 | -31.31473 | -64.21088 | 1612 ft | 4 kts | 169° |
| 2026-05-03 23:41 | -31.31504 | -64.21087 | 1621 ft | 5 kts | 184° |
| 2026-05-03 23:41 | -31.31551 | -64.21098 | 1617 ft | 9 kts | 188° |
| 2026-05-03 23:41 | -31.31623 | -64.21102 | 1614 ft | 12 kts | 180° |
| 2026-05-03 23:42 | -31.31693 | -64.21101 | 1614 ft | 9 kts | 177° |
| 2026-05-03 23:42 | -31.31748 | -64.21068 | 1612 ft | 7 kts | 141° |
| 2026-05-03 23:42 | -31.31791 | -64.21037 | 1617 ft | 7 kts | 161° |
| 2026-05-03 23:42 | -31.31840 | -64.21029 | 1614 ft | 7 kts | 179° |
| 2026-05-03 23:43 | -31.31888 | -64.21028 | 1615 ft | 7 kts | 179° |
| 2026-05-03 23:43 | -31.31935 | -64.21028 | 1619 ft | 7 kts | 179° |
| 2026-05-03 23:43 | -31.31982 | -64.21027 | 1614 ft | 7 kts | 179° |
| 2026-05-03 23:43 | -31.32026 | -64.21027 | 1614 ft | 6 kts | 179° |
| 2026-05-03 23:44 | -31.32071 | -64.21026 | 1613 ft | 6 kts | 179° |
| 2026-05-03 23:44 | -31.32115 | -64.21026 | 1619 ft | 6 kts | 179° |
| 2026-05-03 23:44 | -31.32158 | -64.21025 | 1617 ft | 6 kts | 179° |
| 2026-05-03 23:44 | -31.32200 | -64.21024 | 1617 ft | 6 kts | 179° |
| 2026-05-03 23:45 | -31.32241 | -64.21023 | 1618 ft | 6 kts | 179° |
| 2026-05-03 23:45 | -31.32282 | -64.21021 | 1621 ft | 6 kts | 178° |
| 2026-05-03 23:45 | -31.32319 | -64.21020 | 1616 ft | 5 kts | 178° |
| 2026-05-03 23:45 | -31.32354 | -64.21019 | 1614 ft | 5 kts | 179° |
| 2026-05-03 23:46 | -31.32389 | -64.21013 | 1615 ft | 5 kts | 158° |
| 2026-05-03 23:46 | -31.32392 | -64.21011 | 1615 ft | 0 kts | 156° |
| 2026-05-03 23:49 | -31.32419 | -64.20992 | 1612 ft | 9 kts | 137° |
| 2026-05-03 23:49 | -31.32435 | -64.20896 | 1615 ft | 16 kts | 71° |
| 2026-05-03 23:49 | -31.32328 | -64.20761 | 1613 ft | 40 kts | 44° |
| 2026-05-03 23:50 | -31.31959 | -64.20347 | 1619 ft | 106 kts | 44° |
| 2026-05-03 23:50 | -31.31541 | -64.19879 | 1615 ft | 144 kts | 43° |
| 2026-05-03 23:50 | -31.30458 | -64.18613 | 2166 ft | 173 kts | 46° |
| 2026-05-03 23:50 | -31.29608 | -64.17533 | 2800 ft | 189 kts | 44° |
| 2026-05-03 23:51 | -31.28688 | -64.16379 | 3376 ft | 196 kts | 43° |
| 2026-05-03 23:51 | -31.27721 | -64.15238 | 3995 ft | 202 kts | 41° |
| 2026-05-03 23:51 | -31.26825 | -64.13951 | 4638 ft | 206 kts | 57° |
| 2026-05-03 23:51 | -31.26448 | -64.12366 | 5415 ft | 210 kts | 85° |
| 2026-05-03 23:52 | -31.26725 | -64.10647 | 5767 ft | 236 kts | 112° |
| 2026-05-03 23:52 | -31.27729 | -64.09042 | 5980 ft | 262 kts | 139° |
| 2026-05-03 23:52 | -31.29325 | -64.07978 | 6462 ft | 271 kts | 158° |
| 2026-05-03 23:52 | -31.30884 | -64.06748 | 7069 ft | 274 kts | 132° |
| 2026-05-03 23:53 | -31.32153 | -64.05020 | 7523 ft | 291 kts | 130° |
| 2026-05-03 23:53 | -31.33508 | -64.03193 | 8108 ft | 301 kts | 131° |
| 2026-05-03 23:53 | -31.34910 | -64.01363 | 8911 ft | 304 kts | 134° |
| 2026-05-03 23:53 | -31.36338 | -63.99550 | 9812 ft | 302 kts | 135° |
| 2026-05-03 23:54 | -31.37769 | -63.97772 | 10455 ft | 310 kts | 136° |
| 2026-05-03 23:54 | -31.39319 | -63.95877 | 10635 ft | 334 kts | 136° |
| 2026-05-03 23:54 | -31.40977 | -63.93870 | 10957 ft | 349 kts | 136° |
| 2026-05-03 23:54 | -31.42686 | -63.91810 | 11538 ft | 355 kts | 136° |
| 2026-05-03 23:55 | -31.44420 | -63.89725 | 12229 ft | 358 kts | 137° |
| 2026-05-03 23:55 | -31.46168 | -63.87628 | 12890 ft | 362 kts | 137° |
| 2026-05-03 23:55 | -31.47920 | -63.85528 | 13535 ft | 366 kts | 137° |
| 2026-05-03 23:55 | -31.49711 | -63.83383 | 14137 ft | 370 kts | 137° |
| 2026-05-03 23:56 | -31.51518 | -63.81218 | 14743 ft | 373 kts | 138° |
| 2026-05-03 23:56 | -31.53310 | -63.79070 | 15346 ft | 375 kts | 138° |
| 2026-05-03 23:56 | -31.55145 | -63.76870 | 15961 ft | 379 kts | 139° |
| 2026-05-03 23:56 | -31.56994 | -63.74652 | 16546 ft | 382 kts | 139° |
| 2026-05-03 23:57 | -31.58860 | -63.72412 | 17167 ft | 385 kts | 139° |
| 2026-05-03 23:57 | -31.60736 | -63.70158 | 17771 ft | 388 kts | 139° |
| 2026-05-03 23:57 | -31.62628 | -63.67884 | 18348 ft | 392 kts | 139° |
| 2026-05-03 23:57 | -31.64543 | -63.65582 | 18844 ft | 396 kts | 139° |
| 2026-05-03 23:58 | -31.66471 | -63.63260 | 19355 ft | 399 kts | 139° |
| 2026-05-03 23:58 | -31.68413 | -63.60921 | 19882 ft | 402 kts | 139° |
| 2026-05-03 23:58 | -31.70348 | -63.58590 | 20396 ft | 405 kts | 140° |
| 2026-05-03 23:58 | -31.72322 | -63.56209 | 20903 ft | 409 kts | 140° |
| 2026-05-03 23:59 | -31.74315 | -63.53803 | 21415 ft | 412 kts | 140° |
| 2026-05-03 23:59 | -31.76324 | -63.51377 | 21914 ft | 416 kts | 140° |
| 2026-05-03 23:59 | -31.78343 | -63.48937 | 22402 ft | 419 kts | 140° |
| 2026-05-03 23:59 | -31.80386 | -63.46465 | 22881 ft | 422 kts | 140° |
| 2026-05-04 00:00 | -31.82441 | -63.43976 | 23355 ft | 427 kts | 140° |
| 2026-05-04 00:00 | -31.84517 | -63.41461 | 23757 ft | 430 kts | 140° |
| 2026-05-04 00:00 | -31.86578 | -63.38963 | 24184 ft | 432 kts | 140° |
| 2026-05-04 00:00 | -31.88670 | -63.36415 | 24644 ft | 434 kts | 139° |
| 2026-05-04 00:01 | -31.90668 | -63.33723 | 25065 ft | 439 kts | 135° |
| 2026-05-04 00:01 | -31.92589 | -63.30907 | 25459 ft | 443 kts | 134° |
| 2026-05-04 00:01 | -31.94484 | -63.28033 | 25844 ft | 446 kts | 134° |
| 2026-05-04 00:01 | -31.96387 | -63.25125 | 26220 ft | 449 kts | 134° |
| 2026-05-04 00:02 | -31.98305 | -63.22207 | 26603 ft | 451 kts | 134° |
| 2026-05-04 00:02 | -32.00239 | -63.19285 | 26998 ft | 454 kts | 134° |
| 2026-05-04 00:02 | -32.02173 | -63.16382 | 27297 ft | 458 kts | 135° |
| 2026-05-04 00:02 | -32.04148 | -63.13429 | 27651 ft | 460 kts | 135° |
| 2026-05-04 00:03 | -32.06137 | -63.10460 | 28058 ft | 461 kts | 135° |
| 2026-05-04 00:03 | -32.08126 | -63.07493 | 28430 ft | 463 kts | 135° |
| 2026-05-04 00:03 | -32.10131 | -63.04501 | 28772 ft | 466 kts | 135° |
| 2026-05-04 00:03 | -32.12144 | -63.01495 | 29097 ft | 468 kts | 135° |
| 2026-05-04 00:04 | -32.14119 | -62.98544 | 29420 ft | 471 kts | 135° |
| 2026-05-04 00:04 | -32.16153 | -62.95500 | 29727 ft | 473 kts | 135° |
| 2026-05-04 00:04 | -32.18193 | -62.92444 | 30060 ft | 476 kts | 135° |
| 2026-05-04 00:04 | -32.20249 | -62.89362 | 30296 ft | 479 kts | 135° |
| 2026-05-04 00:05 | -32.22285 | -62.86306 | 30546 ft | 481 kts | 135° |
| 2026-05-04 00:05 | -32.24357 | -62.83194 | 30827 ft | 482 kts | 135° |
| 2026-05-04 00:05 | -32.26419 | -62.80091 | 31234 ft | 480 kts | 135° |
| 2026-05-04 00:05 | -32.28475 | -62.76993 | 31654 ft | 477 kts | 135° |
| 2026-05-04 00:06 | -32.30523 | -62.73906 | 31974 ft | 477 kts | 135° |
| 2026-05-04 00:06 | -32.32573 | -62.70818 | 32246 ft | 478 kts | 135° |
| 2026-05-04 00:06 | -32.34626 | -62.67725 | 32552 ft | 478 kts | 135° |
| 2026-05-04 00:06 | -32.36651 | -62.64668 | 32916 ft | 477 kts | 135° |
| 2026-05-04 00:07 | -32.38696 | -62.61579 | 33244 ft | 477 kts | 135° |
| 2026-05-04 00:07 | -32.40739 | -62.58490 | 33548 ft | 477 kts | 135° |
| 2026-05-04 00:07 | -32.42782 | -62.55399 | 33855 ft | 477 kts | 135° |
| 2026-05-04 00:07 | -32.44822 | -62.52310 | 34152 ft | 476 kts | 135° |
| 2026-05-04 00:08 | -32.46853 | -62.49231 | 34455 ft | 474 kts | 135° |
| 2026-05-04 00:08 | -32.48885 | -62.46149 | 34707 ft | 474 kts | 135° |
| 2026-05-04 00:08 | -32.50915 | -62.43067 | 34912 ft | 475 kts | 135° |
| 2026-05-04 00:08 | -32.52950 | -62.39979 | 35021 ft | 478 kts | 135° |
| 2026-05-04 00:09 | -32.57028 | -62.33778 | 35026 ft | 480 kts | 135° |
| 2026-05-04 00:09 | -32.61099 | -62.27564 | 35006 ft | 474 kts | 135° |
| 2026-05-04 00:10 | -32.65137 | -62.21399 | 35022 ft | 473 kts | 135° |
| 2026-05-04 00:10 | -32.69163 | -62.15239 | 35024 ft | 473 kts | 134° |
| 2026-05-04 00:11 | -32.72969 | -62.08897 | 35034 ft | 476 kts | 131° |
| 2026-05-04 00:11 | -32.76703 | -62.02383 | 35029 ft | 477 kts | 131° |
| 2026-05-04 00:12 | -32.80403 | -61.95962 | 35024 ft | 477 kts | 132° |
| 2026-05-04 00:12 | -32.84171 | -61.89480 | 35030 ft | 476 kts | 132° |
| 2026-05-04 00:13 | -32.87942 | -61.83004 | 35026 ft | 476 kts | 132° |
| 2026-05-04 00:13 | -32.91690 | -61.76559 | 35029 ft | 477 kts | 132° |
| 2026-05-04 00:14 | -32.95459 | -61.70061 | 35025 ft | 477 kts | 132° |
| 2026-05-04 00:14 | -32.99092 | -61.63786 | 35025 ft | 477 kts | 132° |
| 2026-05-04 00:15 | -33.02824 | -61.57327 | 35023 ft | 477 kts | 132° |
| 2026-05-04 00:15 | -33.06583 | -61.50812 | 35025 ft | 477 kts | 132° |
| 2026-05-04 00:16 | -33.10338 | -61.44292 | 35034 ft | 477 kts | 132° |
| 2026-05-04 00:16 | -33.14094 | -61.37758 | 35029 ft | 477 kts | 132° |
| 2026-05-04 00:17 | -33.17847 | -61.31217 | 35030 ft | 477 kts | 131° |
| 2026-05-04 00:17 | -33.21566 | -61.24723 | 35055 ft | 477 kts | 131° |
| 2026-05-04 00:18 | -33.25304 | -61.18182 | 35038 ft | 477 kts | 131° |
| 2026-05-04 00:18 | -33.29043 | -61.11632 | 35030 ft | 477 kts | 131° |
| 2026-05-04 00:19 | -33.32754 | -61.05056 | 35033 ft | 477 kts | 131° |
| 2026-05-04 00:19 | -33.36357 | -60.98652 | 35039 ft | 477 kts | 131° |
| 2026-05-04 00:20 | -33.40064 | -60.92067 | 35039 ft | 477 kts | 131° |
| 2026-05-04 00:20 | -33.43761 | -60.85488 | 35035 ft | 477 kts | 131° |
| 2026-05-04 00:21 | -33.47431 | -60.78940 | 35035 ft | 476 kts | 131° |
| 2026-05-04 00:21 | -33.51093 | -60.72387 | 34666 ft | 469 kts | 131° |
| 2026-05-04 00:22 | -33.52885 | -60.69170 | 34347 ft | 462 kts | 131° |
| 2026-05-04 00:22 | -33.54664 | -60.65979 | 33973 ft | 459 kts | 131° |
| 2026-05-04 00:22 | -33.56432 | -60.62808 | 33542 ft | 455 kts | 130° |
| 2026-05-04 00:22 | -33.58182 | -60.59668 | 33147 ft | 452 kts | 130° |
| 2026-05-04 00:23 | -33.59924 | -60.56539 | 32752 ft | 448 kts | 130° |
| 2026-05-04 00:23 | -33.61625 | -60.53481 | 32372 ft | 445 kts | 130° |
| 2026-05-04 00:23 | -33.63332 | -60.50410 | 32003 ft | 441 kts | 130° |
| 2026-05-04 00:23 | -33.64976 | -60.47449 | 31646 ft | 438 kts | 130° |
| 2026-05-04 00:24 | -33.66657 | -60.44418 | 31286 ft | 435 kts | 130° |
| 2026-05-04 00:24 | -33.68329 | -60.41403 | 30925 ft | 432 kts | 130° |
| 2026-05-04 00:24 | -33.69985 | -60.38413 | 30590 ft | 429 kts | 130° |
| 2026-05-04 00:24 | -33.71637 | -60.35429 | 30222 ft | 427 kts | 130° |
| 2026-05-04 00:25 | -33.73255 | -60.32502 | 29826 ft | 425 kts | 130° |
| 2026-05-04 00:25 | -33.74883 | -60.29556 | 29408 ft | 422 kts | 130° |
| 2026-05-04 00:25 | -33.76497 | -60.26629 | 29033 ft | 418 kts | 130° |
| 2026-05-04 00:25 | -33.78097 | -60.23728 | 28652 ft | 415 kts | 130° |
| 2026-05-04 00:26 | -33.79672 | -60.20868 | 28282 ft | 411 kts | 130° |
| 2026-05-04 00:26 | -33.81247 | -60.18010 | 27913 ft | 408 kts | 130° |
| 2026-05-04 00:26 | -33.82808 | -60.15173 | 27555 ft | 405 kts | 129° |
| 2026-05-04 00:26 | -33.84357 | -60.12358 | 27195 ft | 402 kts | 130° |
| 2026-05-04 00:27 | -33.85903 | -60.09579 | 26855 ft | 400 kts | 130° |
| 2026-05-04 00:27 | -33.87432 | -60.06848 | 26500 ft | 398 kts | 130° |
| 2026-05-04 00:27 | -33.88974 | -60.04096 | 26150 ft | 395 kts | 130° |
| 2026-05-04 00:27 | -33.90506 | -60.01361 | 25799 ft | 394 kts | 130° |
| 2026-05-04 00:28 | -33.91991 | -59.98704 | 25451 ft | 392 kts | 130° |
| 2026-05-04 00:28 | -33.93474 | -59.96048 | 25115 ft | 390 kts | 130° |
| 2026-05-04 00:28 | -33.94984 | -59.93337 | 24771 ft | 389 kts | 130° |
| 2026-05-04 00:28 | -33.96490 | -59.90633 | 24421 ft | 388 kts | 130° |
| 2026-05-04 00:29 | -33.97992 | -59.87933 | 24055 ft | 388 kts | 130° |
| 2026-05-04 00:29 | -33.99470 | -59.85273 | 23714 ft | 387 kts | 130° |
| 2026-05-04 00:29 | -34.00962 | -59.82587 | 23304 ft | 387 kts | 130° |
| 2026-05-04 00:29 | -34.02453 | -59.79900 | 22931 ft | 385 kts | 129° |
| 2026-05-04 00:30 | -34.03935 | -59.77224 | 22561 ft | 383 kts | 129° |
| 2026-05-04 00:30 | -34.05409 | -59.74563 | 22215 ft | 380 kts | 129° |
| 2026-05-04 00:30 | -34.06875 | -59.71915 | 21862 ft | 378 kts | 129° |
| 2026-05-04 00:30 | -34.08330 | -59.69284 | 21526 ft | 376 kts | 129° |
| 2026-05-04 00:31 | -34.09775 | -59.66668 | 21187 ft | 374 kts | 129° |
| 2026-05-04 00:31 | -34.11217 | -59.64058 | 20841 ft | 372 kts | 129° |
| 2026-05-04 00:31 | -34.12621 | -59.61513 | 20513 ft | 370 kts | 129° |
| 2026-05-04 00:31 | -34.14019 | -59.58979 | 20186 ft | 368 kts | 129° |
| 2026-05-04 00:32 | -34.15422 | -59.56434 | 19866 ft | 367 kts | 128° |
| 2026-05-04 00:32 | -34.16832 | -59.53873 | 19524 ft | 365 kts | 128° |
| 2026-05-04 00:32 | -34.18235 | -59.51322 | 19184 ft | 364 kts | 128° |
| 2026-05-04 00:32 | -34.19633 | -59.48780 | 18843 ft | 363 kts | 128° |
| 2026-05-04 00:33 | -34.21029 | -59.46241 | 18502 ft | 362 kts | 128° |
| 2026-05-04 00:33 | -34.23781 | -59.41169 | 17765 ft | 360 kts | 127° |
| 2026-05-04 00:33 | -34.25107 | -59.38658 | 17420 ft | 358 kts | 127° |
| 2026-05-04 00:34 | -34.26435 | -59.36130 | 17071 ft | 355 kts | 126° |
| 2026-05-04 00:34 | -34.27753 | -59.33620 | 16740 ft | 353 kts | 126° |
| 2026-05-04 00:34 | -34.29066 | -59.31120 | 16411 ft | 351 kts | 126° |
| 2026-05-04 00:34 | -34.30359 | -59.28659 | 16095 ft | 348 kts | 126° |
| 2026-05-04 00:35 | -34.31656 | -59.26193 | 15763 ft | 347 kts | 126° |
| 2026-05-04 00:35 | -34.32943 | -59.23743 | 15439 ft | 345 kts | 126° |
| 2026-05-04 00:35 | -34.34227 | -59.21298 | 15109 ft | 343 kts | 126° |
| 2026-05-04 00:35 | -34.35503 | -59.18869 | 14785 ft | 341 kts | 126° |
| 2026-05-04 00:36 | -34.36755 | -59.16483 | 14470 ft | 340 kts | 126° |
| 2026-05-04 00:36 | -34.38017 | -59.14078 | 14158 ft | 338 kts | 126° |
| 2026-05-04 00:36 | -34.39274 | -59.11679 | 13826 ft | 337 kts | 126° |
| 2026-05-04 00:36 | -34.40527 | -59.09286 | 13472 ft | 335 kts | 126° |
| 2026-05-04 00:37 | -34.41730 | -59.06987 | 13142 ft | 333 kts | 125° |
| 2026-05-04 00:37 | -34.42966 | -59.04624 | 12808 ft | 331 kts | 125° |
| 2026-05-04 00:37 | -34.44195 | -59.02273 | 12489 ft | 329 kts | 125° |
| 2026-05-04 00:37 | -34.45403 | -58.99960 | 12179 ft | 327 kts | 125° |
| 2026-05-04 00:38 | -34.46545 | -58.97770 | 11880 ft | 325 kts | 125° |
| 2026-05-04 00:38 | -34.47752 | -58.95456 | 11565 ft | 323 kts | 124° |
| 2026-05-04 00:38 | -34.48949 | -58.93159 | 11257 ft | 322 kts | 124° |
| 2026-05-04 00:38 | -34.50142 | -58.90870 | 10948 ft | 320 kts | 124° |
| 2026-05-04 00:39 | -34.51328 | -58.88589 | 10638 ft | 319 kts | 124° |
| 2026-05-04 00:39 | -34.52508 | -58.86320 | 10338 ft | 317 kts | 124° |
| 2026-05-04 00:39 | -34.53673 | -58.84080 | 10196 ft | 310 kts | 124° |
| 2026-05-04 00:39 | -34.54797 | -58.81916 | 10037 ft | 304 kts | 124° |
| 2026-05-04 00:40 | -34.55894 | -58.79805 | 9739 ft | 303 kts | 123° |
| 2026-05-04 00:40 | -34.56838 | -58.77536 | 9484 ft | 300 kts | 111° |
| 2026-05-04 00:40 | -34.57497 | -58.75155 | 9222 ft | 297 kts | 107° |
| 2026-05-04 00:40 | -34.58102 | -58.72766 | 8940 ft | 295 kts | 107° |
| 2026-05-04 00:41 | -34.58696 | -58.70461 | 8663 ft | 294 kts | 108° |
| 2026-05-04 00:41 | -34.59324 | -58.68104 | 8383 ft | 293 kts | 108° |
| 2026-05-04 00:41 | -34.59963 | -58.65764 | 8100 ft | 291 kts | 108° |
| 2026-05-04 00:41 | -34.60604 | -58.63433 | 7819 ft | 291 kts | 108° |
| 2026-05-04 00:42 | -34.61243 | -58.61112 | 7538 ft | 290 kts | 108° |
| 2026-05-04 00:42 | -34.61869 | -58.58791 | 7259 ft | 289 kts | 108° |
| 2026-05-04 00:42 | -34.62479 | -58.56508 | 6976 ft | 288 kts | 107° |
| 2026-05-04 00:42 | -34.63083 | -58.54240 | 6705 ft | 287 kts | 107° |
| 2026-05-04 00:43 | -34.63695 | -58.51938 | 6428 ft | 286 kts | 107° |
| 2026-05-04 00:43 | -34.64305 | -58.49645 | 6139 ft | 285 kts | 107° |
| 2026-05-04 00:43 | -34.64912 | -58.47358 | 5885 ft | 284 kts | 107° |
| 2026-05-04 00:43 | -34.65516 | -58.45083 | 5622 ft | 282 kts | 107° |
| 2026-05-04 00:44 | -34.66116 | -58.42824 | 5350 ft | 280 kts | 107° |
| 2026-05-04 00:44 | -34.66703 | -58.40607 | 5091 ft | 279 kts | 107° |
| 2026-05-04 00:44 | -34.67296 | -58.38372 | 4828 ft | 278 kts | 106° |
| 2026-05-04 00:44 | -34.67885 | -58.36149 | 4606 ft | 274 kts | 106° |
| 2026-05-04 00:45 | -34.68460 | -58.33979 | 4490 ft | 267 kts | 106° |
| 2026-05-04 00:45 | -34.69021 | -58.31863 | 4365 ft | 260 kts | 106° |
| 2026-05-04 00:45 | -34.69567 | -58.29798 | 4241 ft | 253 kts | 105° |
| 2026-05-04 00:45 | -34.69927 | -58.27758 | 4096 ft | 241 kts | 83° |
| 2026-05-04 00:46 | -34.69460 | -58.25937 | 3929 ft | 215 kts | 51° |
| 2026-05-04 00:46 | -34.68472 | -58.24715 | 3701 ft | 196 kts | 29° |
| 2026-05-04 00:46 | -34.67285 | -58.24059 | 3430 ft | 187 kts | 1° |
| 2026-05-04 00:46 | -34.66127 | -58.24507 | 3241 ft | 179 kts | 321° |
| 2026-05-04 00:47 | -34.65209 | -58.25543 | 3012 ft | 182 kts | 316° |
| 2026-05-04 00:47 | -34.64370 | -58.26700 | 2782 ft | 183 kts | 313° |
| 2026-05-04 00:47 | -34.63593 | -58.27917 | 2538 ft | 182 kts | 310° |
| 2026-05-04 00:47 | -34.62863 | -58.29168 | 2303 ft | 180 kts | 309° |
| 2026-05-04 00:48 | -34.62173 | -58.30387 | 2074 ft | 170 kts | 309° |
| 2026-05-04 00:48 | -34.61528 | -58.31539 | 1837 ft | 161 kts | 310° |
| 2026-05-04 00:48 | -34.60928 | -58.32612 | 1620 ft | 151 kts | 310° |
| 2026-05-04 00:48 | -34.60345 | -58.33653 | 1455 ft | 148 kts | 310° |
| 2026-05-04 00:49 | -34.59770 | -58.34683 | 1299 ft | 144 kts | 310° |
| 2026-05-04 00:49 | -34.59229 | -58.35653 | 1070 ft | 135 kts | 311° |
| 2026-05-04 00:49 | -34.58704 | -58.36590 | 900 ft | 136 kts | 309° |
| 2026-05-04 00:49 | -34.58177 | -58.37534 | 706 ft | 133 kts | 309° |
| 2026-05-04 00:50 | -34.57656 | -58.38474 | 514 ft | 138 kts | 307° |
| 2026-05-04 00:50 | -34.57115 | -58.39441 | 308 ft | 138 kts | 308° |
| 2026-05-04 00:50 | -34.56583 | -58.40393 | 84 ft | 136 kts | 308° |
| 2026-05-04 00:50 | -34.56081 | -58.41292 | 26 ft | 98 kts | 304° |
| 2026-05-04 00:51 | -34.55865 | -58.41679 | 25 ft | 39 kts | 303° |
| 2026-05-04 00:51 | -34.55760 | -58.41871 | 24 ft | 9 kts | 304° |
| 2026-05-04 00:51 | -34.55709 | -58.41903 | 26 ft | 9 kts | 8° |
| 2026-05-04 00:51 | -34.55681 | -58.41867 | 29 ft | 3 kts | 92° |
| 2026-05-04 00:52 | -34.55687 | -58.41844 | 25 ft | 3 kts | 110° |
| 2026-05-04 00:52 | -34.55698 | -58.41820 | 28 ft | 3 kts | 122° |
| 2026-05-04 00:52 | -34.55710 | -58.41797 | 27 ft | 3 kts | 123° |
| 2026-05-04 00:52 | -34.55723 | -58.41773 | 28 ft | 4 kts | 122° |
| 2026-05-04 00:53 | -34.55740 | -58.41738 | 27 ft | 7 kts | 118° |
| 2026-05-04 00:53 | -34.55766 | -58.41673 | 28 ft | 8 kts | 116° |
| 2026-05-04 00:53 | -34.55786 | -58.41605 | 26 ft | 10 kts | 76° |
| 2026-05-04 00:53 | -34.55750 | -58.41567 | 27 ft | 3 kts | 34° |
| 2026-05-04 00:54 | -34.55727 | -58.41540 | 26 ft | 6 kts | 56° |
| 2026-05-04 00:54 | -34.55738 | -58.41501 | 29 ft | 4 kts | 178° |
| 2026-05-04 00:54 | -34.55767 | -58.41523 | 27 ft | 0 kts | 211° |
| 2026-05-04 00:54 | -34.55771 | -58.41526 | 28 ft | 0 kts | 208° |